YSLT weather

Sale Airport
Victoria, Australia

Public forecast

Using degrees Celsius for public forecast. Weather courtesy of forecast.io.

Closest aviation weather report (METAR) to Sale Airport

Closest report is Melbourne Essendon Airport, 105.5 nm (195.4 km) WNW. Retrieved 2020/02/23 10:00 UTC (13 minutes ago):

YMEN 231000Z AUTO 19007KT 9999 // SCT100 22/14 Q1017

Closest aviation forecast (TAF) to Sale Airport

Forecast is more than 6 hours old.

Closest forecast is Wangaratta Airport, 108.5 nm (201.0 km) NNW. Retrieved 2020-02-23 02:33 UTC (8 hours ago):

TAF TAF YWGT 230119Z 2302/2314 36010KT 9999 -SHRA SCT050